Waterloo Airport

CYKF | YKF

Kitchener , Ontario , Canada

Wednesday, December 11th, 2019 | 12:24

Weather

CYKF 111700Z AUTO 24021G30KT 9SM BKN100 BKN120 M06/M12 A3011 RMK SLP216

Charts

No Charts Available

Gates

96 Available

Runways

2 Available

Events

No events for this airport


New event